sm68 at 2026-08-31
00:13:31 UTCDEBUG [2026-08-31 00:13:31] ----- wrcc_downloadData() -----
TRACE [2026-08-31 00:13:31] Downloading WRCC data for unitID sm68 ...
DEBUG [2026-08-31 00:13:32] ----- wrcc_parseData() -----
DEBUG [2026-08-31 00:13:32] ----- wrcc_identifyDataFormat() -----
DEBUG [2026-08-31 00:13:32] ----- addClustering() -----
DEBUG [2026-08-31 00:13:32] ----- wrcc_qualityControl() -----
TRACE [2026-08-31 00:13:32] Applying ESAM QC rules ...
DEBUG [2026-08-31 00:13:32] ----- wrcc_ESAMQualityControl() -----
TRACE [2026-08-31 00:13:32] Flow has 1 missing or out of range values
TRACE [2026-08-31 00:13:32] Bad Flow values: 1.4
TRACE [2026-08-31 00:13:32] AT has 0 missing or out of range values
TRACE [2026-08-31 00:13:32] RHi has 0 missing or out of range values
TRACE [2026-08-31 00:13:32] Conc has 0 missing or out of range values
TRACE [2026-08-31 00:13:32] datetime has 0 missing or out of range values
TRACE [2026-08-31 00:13:32] Flagging 1 rows because of QC logic
TRACE [2026-08-31 00:13:32] Retaining 72 rows of measurements; 1 bad rows flagged
DateTime,GPSLat,GPSLon,Type,SerialNumber,ConcRT,Misc1,AvAirFlw,AvAirTemp,RelHumidity,BaromPress,SensorIntAT,SensorIntRH,WindSpeed,WindDir,BatteryVoltage,CO,monitorName,monitorType,QCFlag_anyBad,QCFlag_reasonCode,QCFlag_badLon,QCFlag_badLat,QCFlag_badType,QCFlag_badFlow,QCFlag_badAT,QCFlag_badRHi,QCFlag_badConcHr,QCFlag_badDateAndTime,QCFlag_duplicateHr,datetime,clusterLon,clusterLat,clusterID
2608272300,39.714348,-105.123955,9,10769,2,NA,1.4,28.9,27,830.2,NA,32,1.4,278,14.4,0,Smoke RMK 121 (Smoke #68),ESAM,TRUE,badFlow,FALSE,FALSE,FALSE,TRUE,FALSE,FALSE,FALSE,FALSE,FALSE,2026-08-27T23:00:00Z,-105.123955,39.714348,1
2608280000,39.714348,-105.123955,9,10769,2,NA,2,31.1,21,829.7,NA,24,1.6,224,14.5,0,Smoke RMK 121 (Smoke #68),ESAM,FALSE,NA,FALSE,FALSE,FALSE,FALSE,FALSE,FALSE,FALSE,FALSE,FALSE,2026-08-28T00:00:00Z,-105.123955,39.714348,1
2608280100,39.714348,-105.123955,9,10769,2,NA,2,30.2,24,829.7,NA,22,1.6,268,14.5,0,Smoke RMK 121 (Smoke #68),ESAM,FALSE,NA,FALSE,FALSE,FALSE,FALSE,FALSE,FALSE,FALSE,FALSE,FALSE,2026-08-28T01:00:00Z,-105.123955,39.714348,1
2608280200,39.714348,-105.123955,9,10769,2,NA,2,26.4,29,829.7,NA,27,1,270,14.5,0,Smoke RMK 121 (Smoke #68),ESAM,FALSE,NA,FALSE,FALSE,FALSE,FALSE,FALSE,FALSE,FALSE,FALSE,FALSE,2026-08-28T02:00:00Z,-105.123955,39.714348,1
2608280300,39.714348,-105.123955,9,10769,2,NA,2,25.8,30,829.7,NA,31,1.5,272,14.4,0,Smoke RMK 121 (Smoke #68),ESAM,FALSE,NA,FALSE,FALSE,FALSE,FALSE,FALSE,FALSE,FALSE,FALSE,FALSE,2026-08-28T03:00:00Z,-105.123955,39.714348,1
2608280400,39.714348,-105.123955,9,10769,2,NA,2,25.1,30,830.1,NA,32,1.1,280,14.4,0,Smoke RMK 121 (Smoke #68),ESAM,FALSE,NA,FALSE,FALSE,FALSE,FALSE,FALSE,FALSE,FALSE,FALSE,FALSE,2026-08-28T04:00:00Z,-105.123955,39.714348,1
2608280500,39.714348,-105.123955,9,10769,2,NA,2,24.5,31,830.1,NA,33,0.8,185,14.4,0,Smoke RMK 121 (Smoke #68),ESAM,FALSE,NA,FALSE,FALSE,FALSE,FALSE,FALSE,FALSE,FALSE,FALSE,FALSE,2026-08-28T05:00:00Z,-105.123955,39.714348,1
2608280600,39.714348,-105.123955,9,10769,2,NA,2,22,40,830.1,NA,40,0.7,205,14.4,0,Smoke RMK 121 (Smoke #68),ESAM,FALSE,NA,FALSE,FALSE,FALSE,FALSE,FALSE,FALSE,FALSE,FALSE,FALSE,2026-08-28T06:00:00Z,-105.123955,39.714348,1
2608280700,39.714348,-105.123955,9,10769,2,NA,2,20.9,46,830.1,NA,47,0.8,308,14.4,0,Smoke RMK 121 (Smoke #68),ESAM,FALSE,NA,FALSE,FALSE,FALSE,FALSE,FALSE,FALSE,FALSE,FALSE,FALSE,2026-08-28T07:00:00Z,-105.123955,39.714348,1
2608280800,39.714348,-105.123955,9,10769,2,NA,2,20.9,41,829.9,NA,43,0.8,241,14.4,0,Smoke RMK 121 (Smoke #68),ESAM,FALSE,NA,FALSE,FALSE,FALSE,FALSE,FALSE,FALSE,FALSE,FALSE,FALSE,2026-08-28T08:00:00Z,-105.123955,39.714348,1
2608280900,39.714348,-105.123955,9,10769,2,NA,2,21.2,39,829.8,NA,42,1.2,233,14.4,0,Smoke RMK 121 (Smoke #68),ESAM,FALSE,NA,FALSE,FALSE,FALSE,FALSE,FALSE,FALSE,FALSE,FALSE,FALSE,2026-08-28T09:00:00Z,-105.123955,39.714348,1
2608281000,39.714348,-105.123955,9,10769,2,NA,2,19.8,43,829.8,NA,44,1.1,236,14.4,0,Smoke RMK 121 (Smoke #68),ESAM,FALSE,NA,FALSE,FALSE,FALSE,FALSE,FALSE,FALSE,FALSE,FALSE,FALSE,2026-08-28T10:00:00Z,-105.123955,39.714348,1
2608281100,39.714348,-105.123955,9,10769,2,NA,2,19.7,44,829.7,NA,46,0.9,215,14.4,0,Smoke RMK 121 (Smoke #68),ESAM,FALSE,NA,FALSE,FALSE,FALSE,FALSE,FALSE,FALSE,FALSE,FALSE,FALSE,2026-08-28T11:00:00Z,-105.123955,39.714348,1
2608281200,39.714348,-105.123955,9,10769,2,NA,2,19.6,41,829.7,NA,43,1,250,14.4,0,Smoke RMK 121 (Smoke #68),ESAM,FALSE,NA,FALSE,FALSE,FALSE,FALSE,FALSE,FALSE,FALSE,FALSE,FALSE,2026-08-28T12:00:00Z,-105.123955,39.714348,1
2608281300,39.714348,-105.123955,9,10769,3,NA,2,20,42,829.8,NA,45,1,236,14.4,0,Smoke RMK 121 (Smoke #68),ESAM,FALSE,NA,FALSE,FALSE,FALSE,FALSE,FALSE,FALSE,FALSE,FALSE,FALSE,2026-08-28T13:00:00Z,-105.123955,39.714348,1
2608281400,39.714348,-105.123955,9,10769,3,NA,2,21.3,43,830.2,NA,45,0.6,242,14.4,0,Smoke RMK 121 (Smoke #68),ESAM,FALSE,NA,FALSE,FALSE,FALSE,FALSE,FALSE,FALSE,FALSE,FALSE,FALSE,2026-08-28T14:00:00Z,-105.123955,39.714348,1
2608281500,39.714348,-105.123955,9,10769,3,NA,2,25.2,36,830.5,NA,40,0.6,132,14.4,0,Smoke RMK 121 (Smoke #68),ESAM,FALSE,NA,FALSE,FALSE,FALSE,FALSE,FALSE,FALSE,FALSE,FALSE,FALSE,2026-08-28T15:00:00Z,-105.123955,39.714348,1
2608281600,39.714348,-105.123955,9,10769,2,NA,2,28.5,29,830.1,NA,28,0.8,157,14.5,0,Smoke RMK 121 (Smoke #68),ESAM,FALSE,NA,FALSE,FALSE,FALSE,FALSE,FALSE,FALSE,FALSE,FALSE,FALSE,2026-08-28T16:00:00Z,-105.123955,39.714348,1
2608281700,39.714348,-105.123955,9,10769,2,NA,2,31.1,27,829.9,NA,26,1,203,14.5,1.2,Smoke RMK 121 (Smoke #68),ESAM,FALSE,NA,FALSE,FALSE,FALSE,FALSE,FALSE,FALSE,FALSE,FALSE,FALSE,2026-08-28T17:00:00Z,-105.123955,39.714348,1
2608281800,39.714348,-105.123955,9,10769,2,NA,2,34,21,829.5,NA,20,1.2,199,14.5,6.2,Smoke RMK 121 (Smoke #68),ESAM,FALSE,NA,FALSE,FALSE,FALSE,FALSE,FALSE,FALSE,FALSE,FALSE,FALSE,2026-08-28T18:00:00Z,-105.123955,39.714348,1
2608281900,39.714348,-105.123955,9,10769,2,NA,2,35.3,16,828.9,NA,16,1.2,243,14.5,7.5,Smoke RMK 121 (Smoke #68),ESAM,FALSE,NA,FALSE,FALSE,FALSE,FALSE,FALSE,FALSE,FALSE,FALSE,FALSE,2026-08-28T19:00:00Z,-105.123955,39.714348,1
2608282000,39.714348,-105.123955,9,10769,1,NA,2,35.1,16,828.2,NA,16,1.2,259,14.5,7.1,Smoke RMK 121 (Smoke #68),ESAM,FALSE,NA,FALSE,FALSE,FALSE,FALSE,FALSE,FALSE,FALSE,FALSE,FALSE,2026-08-28T20:00:00Z,-105.123955,39.714348,1
2608282100,39.714348,-105.123955,9,10769,1,NA,2,33,18,828.1,NA,18,1.7,303,14.5,1.8,Smoke RMK 121 (Smoke #68),ESAM,FALSE,NA,FALSE,FALSE,FALSE,FALSE,FALSE,FALSE,FALSE,FALSE,FALSE,2026-08-28T21:00:00Z,-105.123955,39.714348,1
2608282200,39.714348,-105.123955,9,10769,1,NA,2,34.2,18,827.4,NA,17,1.4,187,14.5,4.4,Smoke RMK 121 (Smoke #68),ESAM,FALSE,NA,FALSE,FALSE,FALSE,FALSE,FALSE,FALSE,FALSE,FALSE,FALSE,2026-08-28T22:00:00Z,-105.123955,39.714348,1
2608282300,39.714478,-105.123894,9,10769,1,NA,2,33.2,19,827.4,NA,18,1.3,327,14.5,2.7,Smoke RMK 121 (Smoke #68),ESAM,FALSE,NA,FALSE,FALSE,FALSE,FALSE,FALSE,FALSE,FALSE,FALSE,FALSE,2026-08-28T23:00:00Z,-105.123955,39.714348,1
2608290000,39.714478,-105.123894,9,10769,2,NA,2,27,35,828.9,NA,30,2.6,288,14.5,0,Smoke RMK 121 (Smoke #68),ESAM,FALSE,NA,FALSE,FALSE,FALSE,FALSE,FALSE,FALSE,FALSE,FALSE,FALSE,2026-08-29T00:00:00Z,-105.123955,39.714348,1
2608290100,39.714478,-105.123894,9,10769,1,NA,2,29,25,828.2,NA,27,1.4,282,14.5,0,Smoke RMK 121 (Smoke #68),ESAM,FALSE,NA,FALSE,FALSE,FALSE,FALSE,FALSE,FALSE,FALSE,FALSE,FALSE,2026-08-29T01:00:00Z,-105.123955,39.714348,1
2608290200,39.714478,-105.123894,9,10769,1,NA,2,27.8,29,829,NA,29,1.3,271,14.5,0,Smoke RMK 121 (Smoke #68),ESAM,FALSE,NA,FALSE,FALSE,FALSE,FALSE,FALSE,FALSE,FALSE,FALSE,FALSE,2026-08-29T02:00:00Z,-105.123955,39.714348,1
2608290300,39.714478,-105.123894,9,10769,1,NA,2,26.4,29,829.3,NA,30,0.9,272,14.4,0,Smoke RMK 121 (Smoke #68),ESAM,FALSE,NA,FALSE,FALSE,FALSE,FALSE,FALSE,FALSE,FALSE,FALSE,FALSE,2026-08-29T03:00:00Z,-105.123955,39.714348,1
2608290400,39.714478,-105.123894,9,10769,2,NA,2,24.7,32,829.5,NA,33,0.9,218,14.4,0,Smoke RMK 121 (Smoke #68),ESAM,FALSE,NA,FALSE,FALSE,FALSE,FALSE,FALSE,FALSE,FALSE,FALSE,FALSE,2026-08-29T04:00:00Z,-105.123955,39.714348,1
2608290500,39.714478,-105.123894,9,10769,2,NA,2,23.4,35,829.4,NA,36,1.2,241,14.4,0,Smoke RMK 121 (Smoke #68),ESAM,FALSE,NA,FALSE,FALSE,FALSE,FALSE,FALSE,FALSE,FALSE,FALSE,FALSE,2026-08-29T05:00:00Z,-105.123955,39.714348,1
2608290600,39.714478,-105.123894,9,10769,1,NA,2,23.7,34,829,NA,37,1.2,254,14.4,0,Smoke RMK 121 (Smoke #68),ESAM,FALSE,NA,FALSE,FALSE,FALSE,FALSE,FALSE,FALSE,FALSE,FALSE,FALSE,2026-08-29T06:00:00Z,-105.123955,39.714348,1
2608290700,39.714478,-105.123894,9,10769,2,NA,2,21.9,39,829,NA,39,1,229,14.4,0,Smoke RMK 121 (Smoke #68),ESAM,FALSE,NA,FALSE,FALSE,FALSE,FALSE,FALSE,FALSE,FALSE,FALSE,FALSE,2026-08-29T07:00:00Z,-105.123955,39.714348,1
2608290800,39.714478,-105.123894,9,10769,2,NA,2,20.1,43,829,NA,43,0.9,279,14.4,0,Smoke RMK 121 (Smoke #68),ESAM,FALSE,NA,FALSE,FALSE,FALSE,FALSE,FALSE,FALSE,FALSE,FALSE,FALSE,2026-08-29T08:00:00Z,-105.123955,39.714348,1
2608290900,39.714478,-105.123894,9,10769,2,NA,2,21.2,38,828.6,NA,42,1.1,259,14.4,0,Smoke RMK 121 (Smoke #68),ESAM,FALSE,NA,FALSE,FALSE,FALSE,FALSE,FALSE,FALSE,FALSE,FALSE,FALSE,2026-08-29T09:00:00Z,-105.123955,39.714348,1
2608291000,39.714478,-105.123894,9,10769,2,NA,2,20.5,41,828.5,NA,42,0.9,240,14.4,0,Smoke RMK 121 (Smoke #68),ESAM,FALSE,NA,FALSE,FALSE,FALSE,FALSE,FALSE,FALSE,FALSE,FALSE,FALSE,2026-08-29T10:00:00Z,-105.123955,39.714348,1
2608291100,39.714478,-105.123894,9,10769,2,NA,2,19.6,43,828.3,NA,44,0.7,221,14.4,0,Smoke RMK 121 (Smoke #68),ESAM,FALSE,NA,FALSE,FALSE,FALSE,FALSE,FALSE,FALSE,FALSE,FALSE,FALSE,2026-08-29T11:00:00Z,-105.123955,39.714348,1
2608291200,39.714478,-105.123894,9,10769,2,NA,2,19,45,828.1,NA,46,1,243,14.4,0,Smoke RMK 121 (Smoke #68),ESAM,FALSE,NA,FALSE,FALSE,FALSE,FALSE,FALSE,FALSE,FALSE,FALSE,FALSE,2026-08-29T12:00:00Z,-105.123955,39.714348,1
2608291300,39.714478,-105.123894,9,10769,2,NA,2,19,46,828.1,NA,47,1,238,14.4,0,Smoke RMK 121 (Smoke #68),ESAM,FALSE,NA,FALSE,FALSE,FALSE,FALSE,FALSE,FALSE,FALSE,FALSE,FALSE,2026-08-29T13:00:00Z,-105.123955,39.714348,1
2608291400,39.714478,-105.123894,9,10769,2,NA,2,21.2,42,828.3,NA,43,0.7,238,14.4,0,Smoke RMK 121 (Smoke #68),ESAM,FALSE,NA,FALSE,FALSE,FALSE,FALSE,FALSE,FALSE,FALSE,FALSE,FALSE,2026-08-29T14:00:00Z,-105.123955,39.714348,1
2608291500,39.714478,-105.123894,9,10769,2,NA,2,27.5,31,828.1,NA,37,0.7,154,14.4,0,Smoke RMK 121 (Smoke #68),ESAM,FALSE,NA,FALSE,FALSE,FALSE,FALSE,FALSE,FALSE,FALSE,FALSE,FALSE,2026-08-29T15:00:00Z,-105.123955,39.714348,1
2608291600,39.714478,-105.123894,9,10769,2,NA,2,30.1,25,827.9,NA,25,1.1,151,14.5,0,Smoke RMK 121 (Smoke #68),ESAM,FALSE,NA,FALSE,FALSE,FALSE,FALSE,FALSE,FALSE,FALSE,FALSE,FALSE,2026-08-29T16:00:00Z,-105.123955,39.714348,1
2608291700,39.714478,-105.123894,9,10769,1,NA,2,31.2,23,828.1,NA,22,1.2,207,14.5,0.1,Smoke RMK 121 (Smoke #68),ESAM,FALSE,NA,FALSE,FALSE,FALSE,FALSE,FALSE,FALSE,FALSE,FALSE,FALSE,2026-08-29T17:00:00Z,-105.123955,39.714348,1
2608291800,39.714478,-105.123894,9,10769,1,NA,2,32.6,20,827.7,NA,19,1.3,185,14.5,2.1,Smoke RMK 121 (Smoke #68),ESAM,FALSE,NA,FALSE,FALSE,FALSE,FALSE,FALSE,FALSE,FALSE,FALSE,FALSE,2026-08-29T18:00:00Z,-105.123955,39.714348,1
2608291900,39.714478,-105.123894,9,10769,1,NA,2,32.6,20,827.1,NA,19,1.3,173,14.5,2.4,Smoke RMK 121 (Smoke #68),ESAM,FALSE,NA,FALSE,FALSE,FALSE,FALSE,FALSE,FALSE,FALSE,FALSE,FALSE,2026-08-29T19:00:00Z,-105.123955,39.714348,1
2608292000,39.714478,-105.123894,9,10769,1,NA,2,32.5,20,826.6,NA,19,1.2,206,14.5,1,Smoke RMK 121 (Smoke #68),ESAM,FALSE,NA,FALSE,FALSE,FALSE,FALSE,FALSE,FALSE,FALSE,FALSE,FALSE,2026-08-29T20:00:00Z,-105.123955,39.714348,1
2608292100,39.714478,-105.123894,9,10769,1,NA,2,34.1,18,825.9,NA,18,1.3,192,14.5,3.6,Smoke RMK 121 (Smoke #68),ESAM,FALSE,NA,FALSE,FALSE,FALSE,FALSE,FALSE,FALSE,FALSE,FALSE,FALSE,2026-08-29T21:00:00Z,-105.123955,39.714348,1
2608292200,39.714363,-105.123985,9,10769,1,NA,2,31.5,23,825.8,NA,20,1.8,260,14.5,1.1,Smoke RMK 121 (Smoke #68),ESAM,FALSE,NA,FALSE,FALSE,FALSE,FALSE,FALSE,FALSE,FALSE,FALSE,FALSE,2026-08-29T22:00:00Z,-105.123955,39.714348,1
2608292300,39.714363,-105.123985,9,10769,1,NA,2,26.5,37,826.3,NA,32,1.9,290,14.5,0,Smoke RMK 121 (Smoke #68),ESAM,FALSE,NA,FALSE,FALSE,FALSE,FALSE,FALSE,FALSE,FALSE,FALSE,FALSE,2026-08-29T23:00:00Z,-105.123955,39.714348,1
2608300000,39.714363,-105.123985,9,10769,1,NA,2,27.5,34,825.9,NA,35,1,272,14.4,0,Smoke RMK 121 (Smoke #68),ESAM,FALSE,NA,FALSE,FALSE,FALSE,FALSE,FALSE,FALSE,FALSE,FALSE,FALSE,2026-08-30T00:00:00Z,-105.123955,39.714348,1
2608300100,39.714363,-105.123985,9,10769,2,NA,2,27.8,33,826.2,NA,32,0.9,68,14.5,0,Smoke RMK 121 (Smoke #68),ESAM,FALSE,NA,FALSE,FALSE,FALSE,FALSE,FALSE,FALSE,FALSE,FALSE,FALSE,2026-08-30T01:00:00Z,-105.123955,39.714348,1
2608300200,39.714363,-105.123985,9,10769,2,NA,2,26.3,38,826.9,NA,36,0.9,325,14.4,0,Smoke RMK 121 (Smoke #68),ESAM,FALSE,NA,FALSE,FALSE,FALSE,FALSE,FALSE,FALSE,FALSE,FALSE,FALSE,2026-08-30T02:00:00Z,-105.123955,39.714348,1
2608300300,39.714363,-105.123985,9,10769,1,NA,2,24.7,36,827.9,NA,35,1.7,304,14.4,0,Smoke RMK 121 (Smoke #68),ESAM,FALSE,NA,FALSE,FALSE,FALSE,FALSE,FALSE,FALSE,FALSE,FALSE,FALSE,2026-08-30T03:00:00Z,-105.123955,39.714348,1
2608300400,39.714363,-105.123985,9,10769,3,NA,2,22.2,46,828.3,NA,44,0.7,288,14.4,0,Smoke RMK 121 (Smoke #68),ESAM,FALSE,NA,FALSE,FALSE,FALSE,FALSE,FALSE,FALSE,FALSE,FALSE,FALSE,2026-08-30T04:00:00Z,-105.123955,39.714348,1
2608300500,39.714363,-105.123985,9,10769,2,NA,2,21.3,47,828.2,NA,47,0.9,177,14.4,0,Smoke RMK 121 (Smoke #68),ESAM,FALSE,NA,FALSE,FALSE,FALSE,FALSE,FALSE,FALSE,FALSE,FALSE,FALSE,2026-08-30T05:00:00Z,-105.123955,39.714348,1
2608300600,39.714363,-105.123985,9,10769,2,NA,2,20.2,52,828.1,NA,48,0.9,340,14.4,0,Smoke RMK 121 (Smoke #68),ESAM,FALSE,NA,FALSE,FALSE,FALSE,FALSE,FALSE,FALSE,FALSE,FALSE,FALSE,2026-08-30T06:00:00Z,-105.123955,39.714348,1
2608300700,39.714363,-105.123985,9,10769,1,NA,2,20.5,45,827.4,NA,46,0.6,6,14.4,0,Smoke RMK 121 (Smoke #68),ESAM,FALSE,NA,FALSE,FALSE,FALSE,FALSE,FALSE,FALSE,FALSE,FALSE,FALSE,2026-08-30T07:00:00Z,-105.123955,39.714348,1
2608300800,39.714363,-105.123985,9,10769,1,NA,2,19.7,48,826.9,NA,48,0.4,288,14.4,0,Smoke RMK 121 (Smoke #68),ESAM,FALSE,NA,FALSE,FALSE,FALSE,FALSE,FALSE,FALSE,FALSE,FALSE,FALSE,2026-08-30T08:00:00Z,-105.123955,39.714348,1
2608300900,39.714363,-105.123985,9,10769,1,NA,2,20.4,46,826.6,NA,46,1.2,275,14.4,0,Smoke RMK 121 (Smoke #68),ESAM,FALSE,NA,FALSE,FALSE,FALSE,FALSE,FALSE,FALSE,FALSE,FALSE,FALSE,2026-08-30T09:00:00Z,-105.123955,39.714348,1
2608301000,39.714363,-105.123985,9,10769,1,NA,2,20,46,826.6,NA,46,0.7,253,14.4,0,Smoke RMK 121 (Smoke #68),ESAM,FALSE,NA,FALSE,FALSE,FALSE,FALSE,FALSE,FALSE,FALSE,FALSE,FALSE,2026-08-30T10:00:00Z,-105.123955,39.714348,1
2608301100,39.714363,-105.123985,9,10769,1,NA,2,18.1,54,826.7,NA,48,0.9,246,14.4,0,Smoke RMK 121 (Smoke #68),ESAM,FALSE,NA,FALSE,FALSE,FALSE,FALSE,FALSE,FALSE,FALSE,FALSE,FALSE,2026-08-30T11:00:00Z,-105.123955,39.714348,1
2608301200,39.714363,-105.123985,9,10769,1,NA,2,17.7,54,826.6,NA,48,1,222,14.4,0,Smoke RMK 121 (Smoke #68),ESAM,FALSE,NA,FALSE,FALSE,FALSE,FALSE,FALSE,FALSE,FALSE,FALSE,FALSE,2026-08-30T12:00:00Z,-105.123955,39.714348,1
2608301300,39.714363,-105.123985,9,10769,2,NA,2,18.4,50,827.1,NA,47,1.3,262,14.4,0,Smoke RMK 121 (Smoke #68),ESAM,FALSE,NA,FALSE,FALSE,FALSE,FALSE,FALSE,FALSE,FALSE,FALSE,FALSE,2026-08-30T13:00:00Z,-105.123955,39.714348,1
2608301400,39.714363,-105.123985,9,10769,1,NA,2,20.7,42,827.5,NA,45,1.8,276,14.4,0,Smoke RMK 121 (Smoke #68),ESAM,FALSE,NA,FALSE,FALSE,FALSE,FALSE,FALSE,FALSE,FALSE,FALSE,FALSE,2026-08-30T14:00:00Z,-105.123955,39.714348,1
2608301500,39.714363,-105.123985,9,10769,1,NA,2,23.4,40,827.5,NA,42,0.7,273,14.4,0,Smoke RMK 121 (Smoke #68),ESAM,FALSE,NA,FALSE,FALSE,FALSE,FALSE,FALSE,FALSE,FALSE,FALSE,FALSE,2026-08-30T15:00:00Z,-105.123955,39.714348,1
2608301600,39.714363,-105.123985,9,10769,1,NA,2,24.8,37,827.8,NA,36,0.7,296,14.4,0,Smoke RMK 121 (Smoke #68),ESAM,FALSE,NA,FALSE,FALSE,FALSE,FALSE,FALSE,FALSE,FALSE,FALSE,FALSE,2026-08-30T16:00:00Z,-105.123955,39.714348,1
2608301700,39.714363,-105.123985,9,10769,1,NA,2,27.2,32,827.8,NA,31,1,133,14.5,0,Smoke RMK 121 (Smoke #68),ESAM,FALSE,NA,FALSE,FALSE,FALSE,FALSE,FALSE,FALSE,FALSE,FALSE,FALSE,2026-08-30T17:00:00Z,-105.123955,39.714348,1
2608301800,39.714363,-105.123985,9,10769,1,NA,2,28.1,31,827.4,NA,27,1.1,138,14.5,0,Smoke RMK 121 (Smoke #68),ESAM,FALSE,NA,FALSE,FALSE,FALSE,FALSE,FALSE,FALSE,FALSE,FALSE,FALSE,2026-08-30T18:00:00Z,-105.123955,39.714348,1
2608301900,39.714363,-105.123985,9,10769,1,NA,2,28.5,30,826.7,NA,26,1.1,138,14.5,0,Smoke RMK 121 (Smoke #68),ESAM,FALSE,NA,FALSE,FALSE,FALSE,FALSE,FALSE,FALSE,FALSE,FALSE,FALSE,2026-08-30T19:00:00Z,-105.123955,39.714348,1
2608302000,39.714363,-105.123985,9,10769,1,NA,2,29.4,28,826.3,NA,25,1.3,185,14.5,0,Smoke RMK 121 (Smoke #68),ESAM,FALSE,NA,FALSE,FALSE,FALSE,FALSE,FALSE,FALSE,FALSE,FALSE,FALSE,2026-08-30T20:00:00Z,-105.123955,39.714348,1
2608302100,39.714363,-105.123985,9,10769,2,NA,2,25.9,35,827.4,NA,28,2.7,314,14.5,0,Smoke RMK 121 (Smoke #68),ESAM,FALSE,NA,FALSE,FALSE,FALSE,FALSE,FALSE,FALSE,FALSE,FALSE,FALSE,2026-08-30T21:00:00Z,-105.123955,39.714348,1
2608302200,39.714397,-105.12394,9,10769,1,NA,2,22.1,42,828.3,NA,37,3,298,14.4,0,Smoke RMK 121 (Smoke #68),ESAM,FALSE,NA,FALSE,FALSE,FALSE,FALSE,FALSE,FALSE,FALSE,FALSE,FALSE,2026-08-30T22:00:00Z,-105.123955,39.714348,1
2608302300,39.714397,-105.12394,9,10769,1,NA,2,23.9,39,827.8,NA,38,1,99,14.4,0,Smoke RMK 121 (Smoke #68),ESAM,FALSE,NA,FALSE,FALSE,FALSE,FALSE,FALSE,FALSE,FALSE,FALSE,FALSE,2026-08-30T23:00:00Z,-105.123955,39.714348,1
Smoke RMK 121 (Smoke #68), has 1 unique
location(s)ESAM monitorCurrently disabled.
Please contact Jonathan Callahan or Gina Wing if you have ideas for additional functionality.